Terminal Aerodrome Forecast
Issued by NWS Mt. Holly, NJ

Home | Current Version | Previous Version | Text Only | Print | Product List | Glossary On
Versions: 1 2 3 4 5 6 7 8 9 10 11 12 13 14 15 16 17 18 19 20 21 22 23 24 25 26 27 28 29 30
000
FTUS41 KPHI 251400 AAA
TAFTTN
TAF AMD
KTTN 251400Z 2514/2612 08010G16KT 5SM -RA BR OVC006
      TEMPO 2514/2517 3SM RA BR
     FM251700 VRB03KT P6SM VCSH OVC007
     FM251900 VRB03KT P6SM OVC012
     FM260100 VRB03KT P6SM BKN045
     FM260500 29005KT P6SM BKN200=

USA.gov is the U.S. government's official web portal to all federal, state and local government web resources and services.